Overview Statistics Trail Chart Weather Telemetry Raw packets
 

This is the latest recevied weather packets stored in our database for station/object N0NB. If no packets are shown the sender has not sent any weather packets the latest 10 day(s).

<< 18 19 20 21 22 23 24 >>
Time Temp. Humidity Pressure Rain* Wind** Luminosity Snow
1788368717 32.78° C 53% 1012.3 hPa 0 mm - 690 W/m² -
1788368117 32.22° C 55% 1012.4 hPa 0 mm - 675 W/m² -
1788367517 32.22° C 55% 1012.4 hPa 0 mm - 659 W/m² -
1788366915 31.67° C 55% 1012.4 hPa 0 mm - 643 W/m² -
1788366317 31.11° C 56% 1012.4 hPa 0 mm - 625 W/m² -
1788365717 31.11° C 56% 1012.3 hPa 0 mm - 604 W/m² -
1788365117 31.11° C 58% 1012.5 hPa 0 mm - 585 W/m² -
1788364517 30.56° C 58% 1012.4 hPa 0 mm - 561 W/m² -
1788363917 29.44° C 59% 1012.3 hPa 0 mm - 391 W/m² -
1788363317 30° C 57% 1012.4 hPa 0 mm - 534 W/m² -
1788362717 30° C 60% 1012.4 hPa 0 mm - 509 W/m² -
1788362117 29.44° C 60% 1012.4 hPa 0 mm - 467 W/m² -
1788361517 29.44° C 59% 1012.3 hPa 0 mm - 450 W/m² -
1788360917 28.89° C 58% 1012.3 hPa 0 mm - 418 W/m² -
1788360317 28.89° C 60% 1012.4 hPa 0 mm - 389 W/m² -
1788359717 28.33° C 61% 1012.3 hPa 0 mm - 358 W/m² -
1788359117 27.78° C 62% 1012.3 hPa 0 mm - 334 W/m² -
1788358517 27.78° C 63% 1012.3 hPa 0 mm - 302 W/m² -
1788357917 27.22° C 63% 1012.4 hPa 0 mm - 275 W/m² -
1788357317 26.67° C 64% 1012.3 hPa 0 mm - 251 W/m² -
1788356717 26.67° C 64% 1012.4 hPa 0 mm - 219 W/m² -
1788356117 26.67° C 65% 1012.4 hPa 0 mm - 184 W/m² -
1788355517 26.11° C 66% 1012.3 hPa 0 mm - 148 W/m² -
1788354917 25.56° C 65% 1012.3 hPa 0 mm - 51 W/m² -
1788354316 25.56° C 66% 1012.4 hPa 0 mm - 97 W/m² -

* Rain latest hour (hover to see other rain measurements)
** Current wind speed in m/s (hover to see current wind gust speed)